sensor_id;sensor_type;location;lat;lon;timestamp;P1;durP1;ratioP1;P2;durP2;ratioP2
49043;SDS011;34860;48.066;14.124;2024-03-07T00:00:22;15.55;;;6.50;;
49043;SDS011;34860;48.066;14.124;2024-03-07T00:03:11;22.25;;;7.10;;
49043;SDS011;34860;48.066;14.124;2024-03-07T00:06:00;16.00;;;6.90;;
49043;SDS011;34860;48.066;14.124;2024-03-07T00:08:58;19.52;;;7.30;;
49043;SDS011;34860;48.066;14.124;2024-03-07T00:11:56;14.43;;;6.95;;
49043;SDS011;34860;48.066;14.124;2024-03-07T00:14:46;23.10;;;7.35;;
49043;SDS011;34860;48.066;14.124;2024-03-07T00:17:35;18.20;;;6.20;;
49043;SDS011;34860;48.066;14.124;2024-03-07T00:20:24;17.58;;;6.55;;
49043;SDS011;34860;48.066;14.124;2024-03-07T00:23:13;17.08;;;6.10;;
49043;SDS011;34860;48.066;14.124;2024-03-07T00:26:12;22.33;;;9.02;;
49043;SDS011;34860;48.066;14.124;2024-03-07T00:29:13;15.00;;;6.28;;
49043;SDS011;34860;48.066;14.124;2024-03-07T00:32:04;14.55;;;5.03;;
49043;SDS011;34860;48.066;14.124;2024-03-07T00:34:53;21.95;;;7.15;;
49043;SDS011;34860;48.066;14.124;2024-03-07T00:37:42;14.60;;;5.57;;
49043;SDS011;34860;48.066;14.124;2024-03-07T00:40:32;13.70;;;5.93;;
49043;SDS011;34860;48.066;14.124;2024-03-07T00:43:23;10.90;;;5.47;;
49043;SDS011;34860;48.066;14.124;2024-03-07T00:46:12;16.35;;;7.25;;
49043;SDS011;34860;48.066;14.124;2024-03-07T00:49:01;18.70;;;6.70;;
49043;SDS011;34860;48.066;14.124;2024-03-07T00:51:50;15.18;;;6.25;;
49043;SDS011;34860;48.066;14.124;2024-03-07T00:54:40;14.27;;;5.95;;
49043;SDS011;34860;48.066;14.124;2024-03-07T00:57:28;16.67;;;6.25;;
49043;SDS011;34860;48.066;14.124;2024-03-07T01:00:20;20.55;;;7.07;;
49043;SDS011;34860;48.066;14.124;2024-03-07T01:03:09;10.75;;;4.55;;
49043;SDS011;34860;48.066;14.124;2024-03-07T01:06:00;15.07;;;7.25;;
49043;SDS011;34860;48.066;14.124;2024-03-07T01:08:50;18.45;;;5.65;;
49043;SDS011;34860;48.066;14.124;2024-03-07T01:11:40;12.30;;;4.97;;
49043;SDS011;34860;48.066;14.124;2024-03-07T01:14:29;15.65;;;5.93;;
49043;SDS011;34860;48.066;14.124;2024-03-07T01:17:21;16.52;;;5.63;;
49043;SDS011;34860;48.066;14.124;2024-03-07T01:20:13;17.42;;;6.38;;
49043;SDS011;34860;48.066;14.124;2024-03-07T01:23:02;15.93;;;6.13;;
49043;SDS011;34860;48.066;14.124;2024-03-07T01:25:51;20.98;;;7.05;;
49043;SDS011;34860;48.066;14.124;2024-03-07T01:28:43;19.63;;;7.80;;
49043;SDS011;34860;48.066;14.124;2024-03-07T01:31:31;11.82;;;5.82;;
49043;SDS011;34860;48.066;14.124;2024-03-07T01:34:22;11.25;;;5.65;;
49043;SDS011;34860;48.066;14.124;2024-03-07T01:37:11;13.13;;;5.35;;
49043;SDS011;34860;48.066;14.124;2024-03-07T01:40:00;16.50;;;6.82;;
49043;SDS011;34860;48.066;14.124;2024-03-07T01:42:52;20.20;;;7.95;;
49043;SDS011;34860;48.066;14.124;2024-03-07T01:45:41;27.17;;;6.15;;
49043;SDS011;34860;48.066;14.124;2024-03-07T01:48:31;23.00;;;8.23;;
49043;SDS011;34860;48.066;14.124;2024-03-07T01:51:22;20.20;;;6.97;;
49043;SDS011;34860;48.066;14.124;2024-03-07T01:54:11;20.75;;;6.80;;
49043;SDS011;34860;48.066;14.124;2024-03-07T01:57:01;23.65;;;8.40;;
49043;SDS011;34860;48.066;14.124;2024-03-07T01:59:50;22.83;;;7.13;;
49043;SDS011;34860;48.066;14.124;2024-03-07T02:02:40;13.88;;;6.20;;
49043;SDS011;34860;48.066;14.124;2024-03-07T02:05:30;21.15;;;6.85;;
49043;SDS011;34860;48.066;14.124;2024-03-07T02:08:20;23.30;;;8.18;;
49043;SDS011;34860;48.066;14.124;2024-03-07T02:11:09;17.73;;;7.45;;
49043;SDS011;34860;48.066;14.124;2024-03-07T02:13:59;23.05;;;8.68;;
49043;SDS011;34860;48.066;14.124;2024-03-07T02:16:48;26.85;;;10.38;;
49043;SDS011;34860;48.066;14.124;2024-03-07T02:19:37;23.50;;;9.50;;
49043;SDS011;34860;48.066;14.124;2024-03-07T02:22:28;18.98;;;6.47;;
49043;SDS011;34860;48.066;14.124;2024-03-07T02:25:16;20.00;;;8.23;;
49043;SDS011;34860;48.066;14.124;2024-03-07T02:28:06;22.40;;;8.00;;
49043;SDS011;34860;48.066;14.124;2024-03-07T02:30:54;19.10;;;7.90;;
49043;SDS011;34860;48.066;14.124;2024-03-07T02:33:44;47.85;;;10.63;;
49043;SDS011;34860;48.066;14.124;2024-03-07T02:36:33;16.20;;;7.05;;
49043;SDS011;34860;48.066;14.124;2024-03-07T02:39:23;20.70;;;8.25;;
49043;SDS011;34860;48.066;14.124;2024-03-07T02:42:13;19.98;;;6.53;;
49043;SDS011;34860;48.066;14.124;2024-03-07T02:45:02;23.15;;;7.72;;
49043;SDS011;34860;48.066;14.124;2024-03-07T02:47:52;22.83;;;9.75;;
49043;SDS011;34860;48.066;14.124;2024-03-07T02:50:41;26.38;;;9.73;;
49043;SDS011;34860;48.066;14.124;2024-03-07T02:53:31;18.30;;;8.27;;
49043;SDS011;34860;48.066;14.124;2024-03-07T02:56:21;21.08;;;6.85;;
49043;SDS011;34860;48.066;14.124;2024-03-07T02:59:10;18.70;;;6.80;;
49043;SDS011;34860;48.066;14.124;2024-03-07T03:01:59;19.85;;;8.07;;
49043;SDS011;34860;48.066;14.124;2024-03-07T03:04:48;17.70;;;6.68;;
49043;SDS011;34860;48.066;14.124;2024-03-07T03:07:38;20.30;;;9.20;;
49043;SDS011;34860;48.066;14.124;2024-03-07T03:10:35;25.90;;;8.65;;
49043;SDS011;34860;48.066;14.124;2024-03-07T03:13:25;18.15;;;8.27;;
49043;SDS011;34860;48.066;14.124;2024-03-07T03:16:15;16.15;;;7.28;;
49043;SDS011;34860;48.066;14.124;2024-03-07T03:19:08;21.83;;;7.25;;
49043;SDS011;34860;48.066;14.124;2024-03-07T03:21:57;22.05;;;7.70;;
49043;SDS011;34860;48.066;14.124;2024-03-07T03:24:46;25.70;;;9.32;;
49043;SDS011;34860;48.066;14.124;2024-03-07T03:27:35;24.48;;;8.80;;
49043;SDS011;34860;48.066;14.124;2024-03-07T03:30:26;18.05;;;7.65;;
49043;SDS011;34860;48.066;14.124;2024-03-07T03:33:15;23.08;;;8.05;;
49043;SDS011;34860;48.066;14.124;2024-03-07T03:36:05;19.70;;;7.53;;
49043;SDS011;34860;48.066;14.124;2024-03-07T03:38:54;21.10;;;8.65;;
49043;SDS011;34860;48.066;14.124;2024-03-07T03:41:43;21.60;;;7.50;;
49043;SDS011;34860;48.066;14.124;2024-03-07T03:44:34;22.05;;;8.80;;
49043;SDS011;34860;48.066;14.124;2024-03-07T03:47:25;19.73;;;7.68;;
49043;SDS011;34860;48.066;14.124;2024-03-07T03:50:15;24.52;;;8.48;;
49043;SDS011;34860;48.066;14.124;2024-03-07T03:53:05;17.42;;;6.63;;
49043;SDS011;34860;48.066;14.124;2024-03-07T03:55:55;18.95;;;7.10;;
49043;SDS011;34860;48.066;14.124;2024-03-07T03:58:44;18.95;;;7.78;;
49043;SDS011;34860;48.066;14.124;2024-03-07T04:01:34;22.40;;;7.60;;
49043;SDS011;34860;48.066;14.124;2024-03-07T04:04:25;23.08;;;8.50;;
49043;SDS011;34860;48.066;14.124;2024-03-07T04:07:14;23.52;;;7.15;;
49043;SDS011;34860;48.066;14.124;2024-03-07T04:10:04;17.48;;;6.38;;
49043;SDS011;34860;48.066;14.124;2024-03-07T04:12:55;17.02;;;7.07;;
49043;SDS011;34860;48.066;14.124;2024-03-07T04:15:46;19.05;;;7.03;;
49043;SDS011;34860;48.066;14.124;2024-03-07T04:18:35;22.98;;;8.68;;
49043;SDS011;34860;48.066;14.124;2024-03-07T04:21:27;26.92;;;9.55;;
49043;SDS011;34860;48.066;14.124;2024-03-07T04:24:16;20.42;;;7.70;;
49043;SDS011;34860;48.066;14.124;2024-03-07T04:27:05;22.58;;;8.95;;
49043;SDS011;34860;48.066;14.124;2024-03-07T04:29:55;17.05;;;8.40;;
49043;SDS011;34860;48.066;14.124;2024-03-07T04:32:44;28.98;;;10.30;;
49043;SDS011;34860;48.066;14.124;2024-03-07T04:35:34;21.65;;;7.47;;
49043;SDS011;34860;48.066;14.124;2024-03-07T04:38:25;20.17;;;8.15;;
49043;SDS011;34860;48.066;14.124;2024-03-07T04:41:15;20.08;;;8.15;;
49043;SDS011;34860;48.066;14.124;2024-03-07T04:44:05;18.60;;;8.23;;
49043;SDS011;34860;48.066;14.124;2024-03-07T04:46:54;22.83;;;9.73;;
49043;SDS011;34860;48.066;14.124;2024-03-07T04:49:44;25.65;;;10.05;;
49043;SDS011;34860;48.066;14.124;2024-03-07T04:52:33;28.27;;;9.68;;
49043;SDS011;34860;48.066;14.124;2024-03-07T04:55:23;21.95;;;9.50;;
49043;SDS011;34860;48.066;14.124;2024-03-07T04:58:13;23.63;;;9.13;;
49043;SDS011;34860;48.066;14.124;2024-03-07T05:01:02;18.23;;;7.60;;
49043;SDS011;34860;48.066;14.124;2024-03-07T05:03:51;22.63;;;10.35;;
49043;SDS011;34860;48.066;14.124;2024-03-07T05:06:41;26.48;;;9.05;;
49043;SDS011;34860;48.066;14.124;2024-03-07T05:09:30;21.40;;;9.73;;
49043;SDS011;34860;48.066;14.124;2024-03-07T05:12:22;27.77;;;10.40;;
49043;SDS011;34860;48.066;14.124;2024-03-07T05:15:11;25.90;;;11.05;;
49043;SDS011;34860;48.066;14.124;2024-03-07T05:18:00;29.42;;;9.20;;
49043;SDS011;34860;48.066;14.124;2024-03-07T05:20:49;29.08;;;9.60;;
49043;SDS011;34860;48.066;14.124;2024-03-07T05:23:39;24.48;;;8.82;;
49043;SDS011;34860;48.066;14.124;2024-03-07T05:26:28;21.50;;;9.07;;
49043;SDS011;34860;48.066;14.124;2024-03-07T05:29:22;31.50;;;10.63;;
49043;SDS011;34860;48.066;14.124;2024-03-07T05:32:21;25.60;;;8.77;;
49043;SDS011;34860;48.066;14.124;2024-03-07T05:35:11;19.05;;;8.90;;
49043;SDS011;34860;48.066;14.124;2024-03-07T05:38:00;23.40;;;7.97;;
49043;SDS011;34860;48.066;14.124;2024-03-07T05:40:52;19.98;;;8.18;;
49043;SDS011;34860;48.066;14.124;2024-03-07T05:43:41;21.75;;;8.20;;
49043;SDS011;34860;48.066;14.124;2024-03-07T05:46:33;26.27;;;9.43;;
49043;SDS011;34860;48.066;14.124;2024-03-07T05:49:22;19.08;;;8.45;;
49043;SDS011;34860;48.066;14.124;2024-03-07T05:52:11;14.13;;;7.20;;
49043;SDS011;34860;48.066;14.124;2024-03-07T05:55:00;18.27;;;7.03;;
49043;SDS011;34860;48.066;14.124;2024-03-07T05:57:49;16.85;;;7.22;;
49043;SDS011;34860;48.066;14.124;2024-03-07T06:00:39;23.40;;;8.30;;
49043;SDS011;34860;48.066;14.124;2024-03-07T06:03:30;23.77;;;8.57;;
49043;SDS011;34860;48.066;14.124;2024-03-07T06:06:19;16.40;;;6.93;;
49043;SDS011;34860;48.066;14.124;2024-03-07T06:09:09;23.45;;;7.95;;
49043;SDS011;34860;48.066;14.124;2024-03-07T06:12:01;19.52;;;7.88;;
49043;SDS011;34860;48.066;14.124;2024-03-07T06:14:56;16.63;;;6.63;;
49043;SDS011;34860;48.066;14.124;2024-03-07T06:17:45;21.90;;;8.27;;
49043;SDS011;34860;48.066;14.124;2024-03-07T06:20:36;13.82;;;5.78;;
49043;SDS011;34860;48.066;14.124;2024-03-07T06:23:26;17.75;;;7.25;;
49043;SDS011;34860;48.066;14.124;2024-03-07T06:26:16;16.40;;;7.15;;
49043;SDS011;34860;48.066;14.124;2024-03-07T06:29:14;12.32;;;5.10;;
49043;SDS011;34860;48.066;14.124;2024-03-07T06:32:05;14.75;;;5.50;;
49043;SDS011;34860;48.066;14.124;2024-03-07T06:34:54;13.73;;;4.88;;
49043;SDS011;34860;48.066;14.124;2024-03-07T06:37:44;9.93;;;5.50;;
49043;SDS011;34860;48.066;14.124;2024-03-07T06:40:33;9.38;;;4.70;;
49043;SDS011;34860;48.066;14.124;2024-03-07T06:43:23;10.40;;;4.28;;
49043;SDS011;34860;48.066;14.124;2024-03-07T06:46:12;12.18;;;4.85;;
49043;SDS011;34860;48.066;14.124;2024-03-07T06:49:03;15.07;;;4.80;;
49043;SDS011;34860;48.066;14.124;2024-03-07T06:51:53;17.58;;;6.00;;
49043;SDS011;34860;48.066;14.124;2024-03-07T06:54:45;13.00;;;5.28;;
49043;SDS011;34860;48.066;14.124;2024-03-07T06:57:34;14.10;;;5.28;;
49043;SDS011;34860;48.066;14.124;2024-03-07T07:00:23;11.07;;;5.18;;
49043;SDS011;34860;48.066;14.124;2024-03-07T07:03:13;13.80;;;6.10;;
49043;SDS011;34860;48.066;14.124;2024-03-07T07:06:03;13.98;;;6.70;;
49043;SDS011;34860;48.066;14.124;2024-03-07T07:08:55;11.85;;;6.43;;
49043;SDS011;34860;48.066;14.124;2024-03-07T07:11:48;12.25;;;5.95;;
49043;SDS011;34860;48.066;14.124;2024-03-07T07:14:37;10.25;;;4.78;;
49043;SDS011;34860;48.066;14.124;2024-03-07T07:17:27;18.15;;;5.40;;
49043;SDS011;34860;48.066;14.124;2024-03-07T07:20:16;14.18;;;5.88;;
49043;SDS011;34860;48.066;14.124;2024-03-07T07:23:06;13.18;;;6.38;;
49043;SDS011;34860;48.066;14.124;2024-03-07T07:25:55;17.33;;;5.80;;
49043;SDS011;34860;48.066;14.124;2024-03-07T07:28:47;12.85;;;5.88;;
49043;SDS011;34860;48.066;14.124;2024-03-07T07:31:36;15.13;;;5.90;;
49043;SDS011;34860;48.066;14.124;2024-03-07T07:34:25;14.30;;;6.57;;
49043;SDS011;34860;48.066;14.124;2024-03-07T07:37:14;16.13;;;6.68;;
49043;SDS011;34860;48.066;14.124;2024-03-07T07:40:04;18.00;;;6.32;;
49043;SDS011;34860;48.066;14.124;2024-03-07T07:42:55;14.23;;;6.22;;
49043;SDS011;34860;48.066;14.124;2024-03-07T07:45:46;15.35;;;6.63;;
49043;SDS011;34860;48.066;14.124;2024-03-07T07:48:35;23.67;;;7.85;;
49043;SDS011;34860;48.066;14.124;2024-03-07T07:51:25;14.35;;;7.30;;
49043;SDS011;34860;48.066;14.124;2024-03-07T07:54:17;13.82;;;6.35;;
49043;SDS011;34860;48.066;14.124;2024-03-07T07:57:06;19.35;;;5.85;;
49043;SDS011;34860;48.066;14.124;2024-03-07T07:59:55;11.30;;;4.65;;
49043;SDS011;34860;48.066;14.124;2024-03-07T08:02:46;15.75;;;6.13;;
49043;SDS011;34860;48.066;14.124;2024-03-07T08:05:35;20.58;;;6.93;;
49043;SDS011;34860;48.066;14.124;2024-03-07T08:08:24;15.07;;;5.90;;
49043;SDS011;34860;48.066;14.124;2024-03-07T08:11:16;19.30;;;7.78;;
49043;SDS011;34860;48.066;14.124;2024-03-07T08:14:06;21.02;;;7.95;;
49043;SDS011;34860;48.066;14.124;2024-03-07T08:16:59;16.73;;;6.70;;
49043;SDS011;34860;48.066;14.124;2024-03-07T08:19:50;18.30;;;6.90;;
49043;SDS011;34860;48.066;14.124;2024-03-07T08:22:42;15.30;;;6.60;;
49043;SDS011;34860;48.066;14.124;2024-03-07T08:25:32;12.05;;;5.60;;
49043;SDS011;34860;48.066;14.124;2024-03-07T08:28:21;15.50;;;6.65;;
49043;SDS011;34860;48.066;14.124;2024-03-07T08:31:10;13.27;;;5.80;;
49043;SDS011;34860;48.066;14.124;2024-03-07T08:33:59;16.45;;;6.60;;
49043;SDS011;34860;48.066;14.124;2024-03-07T08:36:50;17.20;;;6.75;;
49043;SDS011;34860;48.066;14.124;2024-03-07T08:39:39;16.52;;;5.95;;
49043;SDS011;34860;48.066;14.124;2024-03-07T08:42:29;12.63;;;6.15;;
49043;SDS011;34860;48.066;14.124;2024-03-07T08:45:19;18.98;;;6.55;;
49043;SDS011;34860;48.066;14.124;2024-03-07T08:48:09;18.25;;;5.88;;
49043;SDS011;34860;48.066;14.124;2024-03-07T08:50:58;20.42;;;7.32;;
49043;SDS011;34860;48.066;14.124;2024-03-07T08:53:50;16.17;;;5.47;;
49043;SDS011;34860;48.066;14.124;2024-03-07T08:56:40;13.15;;;6.78;;
49043;SDS011;34860;48.066;14.124;2024-03-07T08:59:29;13.48;;;5.40;;
49043;SDS011;34860;48.066;14.124;2024-03-07T09:02:20;9.40;;;3.90;;
49043;SDS011;34860;48.066;14.124;2024-03-07T09:05:10;14.32;;;5.97;;
49043;SDS011;34860;48.066;14.124;2024-03-07T09:07:59;11.15;;;5.10;;
49043;SDS011;34860;48.066;14.124;2024-03-07T09:10:51;15.93;;;5.60;;
49043;SDS011;34860;48.066;14.124;2024-03-07T09:13:42;17.90;;;6.00;;
49043;SDS011;34860;48.066;14.124;2024-03-07T09:16:33;14.38;;;5.57;;
49043;SDS011;34860;48.066;14.124;2024-03-07T09:19:23;9.40;;;4.72;;
49043;SDS011;34860;48.066;14.124;2024-03-07T09:22:14;16.80;;;6.40;;
49043;SDS011;34860;48.066;14.124;2024-03-07T09:25:04;13.65;;;6.60;;
49043;SDS011;34860;48.066;14.124;2024-03-07T09:27:56;17.20;;;5.97;;
49043;SDS011;34860;48.066;14.124;2024-03-07T09:30:45;16.35;;;6.10;;
49043;SDS011;34860;48.066;14.124;2024-03-07T09:33:36;14.18;;;5.50;;
49043;SDS011;34860;48.066;14.124;2024-03-07T09:36:25;19.98;;;7.65;;
49043;SDS011;34860;48.066;14.124;2024-03-07T09:39:15;10.40;;;5.63;;
49043;SDS011;34860;48.066;14.124;2024-03-07T09:42:04;17.00;;;5.60;;
49043;SDS011;34860;48.066;14.124;2024-03-07T09:44:58;15.25;;;6.13;;
49043;SDS011;34860;48.066;14.124;2024-03-07T09:47:50;17.08;;;5.80;;
49043;SDS011;34860;48.066;14.124;2024-03-07T09:50:40;16.17;;;6.65;;
49043;SDS011;34860;48.066;14.124;2024-03-07T09:53:31;13.00;;;5.85;;
49043;SDS011;34860;48.066;14.124;2024-03-07T09:56:21;12.93;;;6.57;;
49043;SDS011;34860;48.066;14.124;2024-03-07T09:59:11;13.57;;;5.05;;
49043;SDS011;34860;48.066;14.124;2024-03-07T10:02:03;15.93;;;7.00;;
49043;SDS011;34860;48.066;14.124;2024-03-07T10:04:54;14.00;;;5.95;;
49043;SDS011;34860;48.066;14.124;2024-03-07T10:07:45;12.55;;;5.63;;
49043;SDS011;34860;48.066;14.124;2024-03-07T10:10:34;15.73;;;5.43;;
49043;SDS011;34860;48.066;14.124;2024-03-07T10:13:23;14.75;;;7.18;;
49043;SDS011;34860;48.066;14.124;2024-03-07T10:16:13;16.67;;;6.03;;
49043;SDS011;34860;48.066;14.124;2024-03-07T10:19:07;12.77;;;5.57;;
49043;SDS011;34860;48.066;14.124;2024-03-07T10:21:59;11.77;;;5.68;;
49043;SDS011;34860;48.066;14.124;2024-03-07T10:24:49;14.88;;;6.50;;
49043;SDS011;34860;48.066;14.124;2024-03-07T10:27:39;9.32;;;4.68;;
49043;SDS011;34860;48.066;14.124;2024-03-07T10:30:29;14.45;;;6.18;;
49043;SDS011;34860;48.066;14.124;2024-03-07T10:33:18;12.98;;;6.50;;
49043;SDS011;34860;48.066;14.124;2024-03-07T10:36:11;12.13;;;5.80;;
49043;SDS011;34860;48.066;14.124;2024-03-07T10:39:02;19.83;;;6.93;;
49043;SDS011;34860;48.066;14.124;2024-03-07T10:42:00;10.45;;;4.65;;
49043;SDS011;34860;48.066;14.124;2024-03-07T10:44:52;11.35;;;4.57;;
49043;SDS011;34860;48.066;14.124;2024-03-07T10:47:52;9.02;;;4.57;;
49043;SDS011;34860;48.066;14.124;2024-03-07T10:50:48;12.07;;;4.85;;
49043;SDS011;34860;48.066;14.124;2024-03-07T10:53:49;20.00;;;6.75;;
49043;SDS011;34860;48.066;14.124;2024-03-07T10:56:48;12.60;;;5.63;;
49043;SDS011;34860;48.066;14.124;2024-03-07T10:59:54;14.10;;;5.95;;
49043;SDS011;34860;48.066;14.124;2024-03-07T11:02:46;20.08;;;6.57;;
49043;SDS011;34860;48.066;14.124;2024-03-07T11:05:36;19.63;;;6.00;;
49043;SDS011;34860;48.066;14.124;2024-03-07T11:08:27;14.15;;;5.35;;
49043;SDS011;34860;48.066;14.124;2024-03-07T11:11:18;11.85;;;4.75;;
49043;SDS011;34860;48.066;14.124;2024-03-07T11:14:07;11.20;;;5.90;;
49043;SDS011;34860;48.066;14.124;2024-03-07T11:17:03;14.88;;;5.22;;
49043;SDS011;34860;48.066;14.124;2024-03-07T11:19:53;17.85;;;6.00;;
49043;SDS011;34860;48.066;14.124;2024-03-07T11:22:42;13.98;;;5.75;;
49043;SDS011;34860;48.066;14.124;2024-03-07T11:25:32;16.48;;;7.72;;
49043;SDS011;34860;48.066;14.124;2024-03-07T11:28:31;11.82;;;5.47;;
49043;SDS011;34860;48.066;14.124;2024-03-07T11:31:25;16.55;;;5.30;;
49043;SDS011;34860;48.066;14.124;2024-03-07T11:34:15;10.75;;;4.38;;
49043;SDS011;34860;48.066;14.124;2024-03-07T11:37:06;11.23;;;4.18;;
49043;SDS011;34860;48.066;14.124;2024-03-07T11:40:05;14.07;;;5.53;;
49043;SDS011;34860;48.066;14.124;2024-03-07T11:43:05;9.43;;;4.53;;
49043;SDS011;34860;48.066;14.124;2024-03-07T11:45:56;9.25;;;3.67;;
49043;SDS011;34860;48.066;14.124;2024-03-07T11:48:45;12.57;;;4.95;;
49043;SDS011;34860;48.066;14.124;2024-03-07T11:51:35;14.13;;;3.95;;
49043;SDS011;34860;48.066;14.124;2024-03-07T11:54:24;8.38;;;3.80;;
49043;SDS011;34860;48.066;14.124;2024-03-07T11:57:15;11.73;;;4.65;;
49043;SDS011;34860;48.066;14.124;2024-03-07T12:00:07;12.70;;;4.28;;
49043;SDS011;34860;48.066;14.124;2024-03-07T12:03:02;11.88;;;4.22;;
49043;SDS011;34860;48.066;14.124;2024-03-07T12:05:54;17.67;;;7.22;;
49043;SDS011;34860;48.066;14.124;2024-03-07T12:08:44;8.68;;;3.97;;
49043;SDS011;34860;48.066;14.124;2024-03-07T12:11:33;11.90;;;4.43;;
49043;SDS011;34860;48.066;14.124;2024-03-07T12:14:23;9.75;;;4.47;;
49043;SDS011;34860;48.066;14.124;2024-03-07T12:17:13;12.82;;;4.88;;
49043;SDS011;34860;48.066;14.124;2024-03-07T12:20:05;12.50;;;5.97;;
49043;SDS011;34860;48.066;14.124;2024-03-07T12:23:12;16.17;;;5.68;;
49043;SDS011;34860;48.066;14.124;2024-03-07T12:26:03;11.13;;;4.60;;
49043;SDS011;34860;48.066;14.124;2024-03-07T12:28:53;14.25;;;4.43;;
49043;SDS011;34860;48.066;14.124;2024-03-07T12:31:42;9.18;;;4.03;;
49043;SDS011;34860;48.066;14.124;2024-03-07T12:34:31;11.00;;;4.97;;
49043;SDS011;34860;48.066;14.124;2024-03-07T12:37:25;9.48;;;5.00;;
49043;SDS011;34860;48.066;14.124;2024-03-07T12:40:16;11.70;;;5.00;;
49043;SDS011;34860;48.066;14.124;2024-03-07T12:43:14;14.13;;;4.72;;
49043;SDS011;34860;48.066;14.124;2024-03-07T12:46:05;10.55;;;4.30;;
49043;SDS011;34860;48.066;14.124;2024-03-07T12:48:56;14.77;;;4.00;;
49043;SDS011;34860;48.066;14.124;2024-03-07T12:51:45;9.25;;;4.22;;
49043;SDS011;34860;48.066;14.124;2024-03-07T12:54:36;11.48;;;3.78;;
49043;SDS011;34860;48.066;14.124;2024-03-07T12:57:28;13.65;;;3.63;;
49043;SDS011;34860;48.066;14.124;2024-03-07T13:00:17;7.97;;;3.15;;
49043;SDS011;34860;48.066;14.124;2024-03-07T13:03:07;13.95;;;4.18;;
49043;SDS011;34860;48.066;14.124;2024-03-07T13:05:57;10.35;;;4.18;;
49043;SDS011;34860;48.066;14.124;2024-03-07T13:08:48;10.73;;;3.50;;
49043;SDS011;34860;48.066;14.124;2024-03-07T13:11:39;11.45;;;4.68;;
49043;SDS011;34860;48.066;14.124;2024-03-07T13:14:33;7.75;;;3.10;;
49043;SDS011;34860;48.066;14.124;2024-03-07T13:17:22;11.63;;;3.38;;
49043;SDS011;34860;48.066;14.124;2024-03-07T13:20:12;25.25;;;10.88;;
49043;SDS011;34860;48.066;14.124;2024-03-07T13:23:03;16.38;;;3.95;;
49043;SDS011;34860;48.066;14.124;2024-03-07T13:25:53;9.68;;;3.67;;
49043;SDS011;34860;48.066;14.124;2024-03-07T13:28:45;14.63;;;3.17;;
49043;SDS011;34860;48.066;14.124;2024-03-07T13:31:34;6.97;;;3.88;;
49043;SDS011;34860;48.066;14.124;2024-03-07T13:34:23;12.38;;;4.38;;
49043;SDS011;34860;48.066;14.124;2024-03-07T13:37:13;8.43;;;4.13;;
49043;SDS011;34860;48.066;14.124;2024-03-07T13:40:05;13.63;;;5.25;;
49043;SDS011;34860;48.066;14.124;2024-03-07T13:43:10;12.23;;;4.82;;
49043;SDS011;34860;48.066;14.124;2024-03-07T13:46:04;10.75;;;5.38;;
49043;SDS011;34860;48.066;14.124;2024-03-07T13:48:53;15.70;;;5.20;;
49043;SDS011;34860;48.066;14.124;2024-03-07T13:51:51;11.02;;;4.20;;
49043;SDS011;34860;48.066;14.124;2024-03-07T13:54:47;6.13;;;2.85;;
49043;SDS011;34860;48.066;14.124;2024-03-07T13:57:41;11.77;;;3.22;;
49043;SDS011;34860;48.066;14.124;2024-03-07T14:00:40;7.53;;;2.90;;
49043;SDS011;34860;48.066;14.124;2024-03-07T14:03:47;11.23;;;4.13;;
49043;SDS011;34860;48.066;14.124;2024-03-07T14:06:54;8.43;;;2.67;;
49043;SDS011;34860;48.066;14.124;2024-03-07T14:10:05;7.90;;;3.63;;
49043;SDS011;34860;48.066;14.124;2024-03-07T14:13:17;5.13;;;2.40;;
49043;SDS011;34860;48.066;14.124;2024-03-07T14:16:39;7.90;;;2.85;;
49043;SDS011;34860;48.066;14.124;2024-03-07T14:23:36;8.13;;;3.47;;
49043;SDS011;34860;48.066;14.124;2024-03-07T14:26:39;7.20;;;2.85;;
49043;SDS011;34860;48.066;14.124;2024-03-07T14:29:41;13.20;;;3.30;;
49043;SDS011;34860;48.066;14.124;2024-03-07T14:32:37;5.93;;;2.65;;
49043;SDS011;34860;48.066;14.124;2024-03-07T14:35:30;7.10;;;2.83;;
49043;SDS011;34860;48.066;14.124;2024-03-07T14:38:23;7.72;;;3.10;;
49043;SDS011;34860;48.066;14.124;2024-03-07T14:41:15;15.48;;;5.13;;
49043;SDS011;34860;48.066;14.124;2024-03-07T14:44:05;6.60;;;3.17;;
49043;SDS011;34860;48.066;14.124;2024-03-07T14:46:55;9.95;;;3.80;;
49043;SDS011;34860;48.066;14.124;2024-03-07T14:49:50;9.30;;;3.63;;
49043;SDS011;34860;48.066;14.124;2024-03-07T14:52:41;6.85;;;3.53;;
49043;SDS011;34860;48.066;14.124;2024-03-07T14:55:34;7.70;;;3.50;;
49043;SDS011;34860;48.066;14.124;2024-03-07T14:58:25;13.18;;;3.75;;
49043;SDS011;34860;48.066;14.124;2024-03-07T15:01:14;11.18;;;3.92;;
49043;SDS011;34860;48.066;14.124;2024-03-07T15:04:04;8.43;;;2.95;;
49043;SDS011;34860;48.066;14.124;2024-03-07T15:06:58;9.10;;;4.15;;
49043;SDS011;34860;48.066;14.124;2024-03-07T15:09:51;16.02;;;3.53;;
49043;SDS011;34860;48.066;14.124;2024-03-07T15:12:42;7.30;;;2.22;;
49043;SDS011;34860;48.066;14.124;2024-03-07T15:15:34;4.03;;;1.88;;
49043;SDS011;34860;48.066;14.124;2024-03-07T15:18:23;6.50;;;2.40;;
49043;SDS011;34860;48.066;14.124;2024-03-07T15:21:14;7.10;;;2.08;;
49043;SDS011;34860;48.066;14.124;2024-03-07T15:24:04;9.85;;;2.90;;
49043;SDS011;34860;48.066;14.124;2024-03-07T15:26:55;6.53;;;2.92;;
49043;SDS011;34860;48.066;14.124;2024-03-07T15:29:46;6.28;;;2.92;;
49043;SDS011;34860;48.066;14.124;2024-03-07T15:32:35;7.47;;;3.13;;
49043;SDS011;34860;48.066;14.124;2024-03-07T15:35:32;5.60;;;2.38;;
49043;SDS011;34860;48.066;14.124;2024-03-07T15:38:22;6.63;;;2.63;;
49043;SDS011;34860;48.066;14.124;2024-03-07T15:41:12;6.97;;;2.28;;
49043;SDS011;34860;48.066;14.124;2024-03-07T15:44:01;5.75;;;2.30;;
49043;SDS011;34860;48.066;14.124;2024-03-07T15:46:50;5.70;;;1.38;;
49043;SDS011;34860;48.066;14.124;2024-03-07T15:49:39;6.53;;;3.55;;
49043;SDS011;34860;48.066;14.124;2024-03-07T15:52:30;6.13;;;2.83;;
49043;SDS011;34860;48.066;14.124;2024-03-07T15:55:21;7.22;;;2.13;;
49043;SDS011;34860;48.066;14.124;2024-03-07T15:58:11;6.20;;;2.25;;
49043;SDS011;34860;48.066;14.124;2024-03-07T16:01:04;4.85;;;1.98;;
49043;SDS011;34860;48.066;14.124;2024-03-07T16:03:53;7.13;;;2.20;;
49043;SDS011;34860;48.066;14.124;2024-03-07T16:06:42;6.25;;;1.98;;
49043;SDS011;34860;48.066;14.124;2024-03-07T16:09:33;4.90;;;2.20;;
49043;SDS011;34860;48.066;14.124;2024-03-07T16:12:21;5.90;;;2.63;;
49043;SDS011;34860;48.066;14.124;2024-03-07T16:15:10;4.65;;;2.78;;
49043;SDS011;34860;48.066;14.124;2024-03-07T16:17:59;6.35;;;2.72;;
49043;SDS011;34860;48.066;14.124;2024-03-07T16:20:47;11.93;;;4.15;;
49043;SDS011;34860;48.066;14.124;2024-03-07T16:23:36;18.02;;;3.60;;
49043;SDS011;34860;48.066;14.124;2024-03-07T16:26:34;5.50;;;2.65;;
49043;SDS011;34860;48.066;14.124;2024-03-07T16:29:23;11.40;;;4.43;;
49043;SDS011;34860;48.066;14.124;2024-03-07T16:32:11;4.13;;;2.65;;
49043;SDS011;34860;48.066;14.124;2024-03-07T16:35:01;4.72;;;2.05;;
49043;SDS011;34860;48.066;14.124;2024-03-07T16:37:56;10.43;;;3.38;;
49043;SDS011;34860;48.066;14.124;2024-03-07T16:40:45;5.25;;;2.10;;
49043;SDS011;34860;48.066;14.124;2024-03-07T16:43:37;7.47;;;3.05;;
49043;SDS011;34860;48.066;14.124;2024-03-07T16:46:26;8.20;;;2.70;;